Time;durP1;ratioP1;P1;durP2;ratioP2;P2;SDS_P1;SDS_P2;PMS_P1;PMS_P2;Temp;Humidity;BMP_temperature;BMP_pressure;BME280_temperature;BME280_humidity;BME280_pressure;Samples;Min_cycle;Max_cycle;Signal;HPM_P1;HPM_P2
2022/08/24 00:00:20;;;;;;;2.65;1.98;;;27.10;53.00;;;;;;4978951;28;20129;-83
2022/08/24 00:02:47;;;;;;;2.72;1.67;;;27.10;53.10;;;;;;4978994;28;20041;-83
2022/08/24 00:05:13;;;;;;;2.30;1.95;;;27.10;53.10;;;;;;4978636;28;20027;-82
2022/08/24 00:07:39;;;;;;;2.33;1.70;;;27.00;53.10;;;;;;4962523;28;20033;-81
2022/08/24 00:10:07;;;;;;;2.38;1.80;;;27.00;53.10;;;;;;4996469;28;20026;-81
2022/08/24 00:12:33;;;;;;;1.88;1.63;;;27.00;53.20;;;;;;4978533;28;20030;-82
2022/08/24 00:14:59;;;;;;;3.13;2.00;;;27.00;53.20;;;;;;4978904;28;20045;-81
2022/08/24 00:17:25;;;;;;;2.50;1.90;;;26.90;53.20;;;;;;4962557;28;20442;-81
2022/08/24 00:19:51;;;;;;;1.52;1.42;;;26.90;53.30;;;;;;4962284;28;20049;-81
2022/08/24 00:22:17;;;;;;;2.47;1.80;;;26.80;53.20;;;;;;4962883;28;20045;-81
2022/08/24 00:24:43;;;;;;;3.33;1.85;;;26.80;53.30;;;;;;4978641;28;20125;-81
2022/08/24 00:27:11;;;;;;;2.00;1.70;;;26.80;53.30;;;;;;4998810;28;20061;-82
2022/08/24 00:29:37;;;;;;;3.08;1.80;;;26.80;53.40;;;;;;5013542;28;20033;-81
2022/08/24 00:32:03;;;;;;;1.90;1.73;;;26.70;53.40;;;;;;4994634;28;20054;-83
2022/08/24 00:34:31;;;;;;;2.22;1.77;;;26.70;53.40;;;;;;4979215;28;20030;-81
2022/08/24 00:36:57;;;;;;;1.90;1.70;;;26.70;53.50;;;;;;4946574;28;20088;-81
2022/08/24 00:39:23;;;;;;;3.72;2.00;;;26.70;53.50;;;;;;4995597;28;20034;-81
2022/08/24 00:41:50;;;;;;;1.73;1.60;;;26.60;53.50;;;;;;4995686;28;20134;-81
2022/08/24 00:44:18;;;;;;;1.98;1.77;;;26.60;53.60;;;;;;4995257;28;20038;-81
2022/08/24 00:46:59;;;;;;;3.17;1.75;;;26.60;53.60;;;;;;4961833;28;20034;-82
2022/08/24 00:49:56;;;;;;;1.70;1.50;;;26.60;53.70;;;;;;4995438;28;20065;-81
2022/08/24 00:52:34;;;;;;;2.47;1.85;;;26.50;53.70;;;;;;4978110;28;20089;-81
2022/08/24 00:55:07;;;;;;;2.17;1.80;;;26.50;53.70;;;;;;4962932;28;20057;-80
2022/08/24 00:57:38;;;;;;;2.47;1.80;;;26.40;53.70;;;;;;4961847;28;20042;-81
2022/08/24 01:00:13;;;;;;;2.58;1.90;;;26.40;53.80;;;;;;4995722;28;20116;-81
2022/08/24 01:02:43;;;;;;;1.80;1.55;;;26.40;53.80;;;;;;4978487;28;20035;-82
2022/08/24 01:05:11;;;;;;;2.30;1.88;;;26.40;53.90;;;;;;4962055;28;20026;-82
2022/08/24 01:07:38;;;;;;;2.47;1.80;;;26.40;53.90;;;;;;4945779;28;20046;-83
2022/08/24 01:10:11;;;;;;;2.13;1.88;;;26.30;53.90;;;;;;4994920;28;20026;-81
2022/08/24 01:12:40;;;;;;;2.15;1.95;;;26.30;54.00;;;;;;4961965;28;20379;-84
2022/08/24 01:15:09;;;;;;;2.05;1.70;;;26.30;54.00;;;;;;4978439;28;20487;-82
2022/08/24 01:20:22;;;;;;;1.73;1.48;;;26.20;54.00;;;;;;4977487;28;20041;-81
2022/08/24 01:23:01;;;;;;;2.15;1.85;;;26.20;54.00;;;;;;4977299;28;20030;-82
2022/08/24 01:25:29;;;;;;;2.47;2.00;;;26.10;54.10;;;;;;4978059;28;20022;-81
2022/08/24 01:27:58;;;;;;;1.98;1.75;;;26.10;54.10;;;;;;4977213;28;20018;-81
2022/08/24 01:30:25;;;;;;;2.25;1.70;;;26.10;54.20;;;;;;4977905;28;20129;-81
2022/08/24 01:32:54;;;;;;;2.40;1.88;;;26.10;54.20;;;;;;4961310;28;20026;-81
2022/08/24 01:35:20;;;;;;;2.25;2.03;;;26.00;54.20;;;;;;4977248;28;20034;-81
2022/08/24 01:37:46;;;;;;;3.05;2.00;;;26.00;54.30;;;;;;4960926;28;20097;-82
2022/08/24 01:40:12;;;;;;;3.05;2.40;;;26.00;54.30;;;;;;4977550;28;20042;-82
2022/08/24 01:42:38;;;;;;;2.65;2.08;;;26.00;54.30;;;;;;4961087;28;20092;-81
2022/08/24 01:45:05;;;;;;;2.72;2.05;;;26.00;54.30;;;;;;4977587;28;20081;-81
2022/08/24 01:47:31;;;;;;;2.38;1.77;;;25.90;54.30;;;;;;4960998;28;20044;-81
2022/08/24 01:49:57;;;;;;;3.20;2.00;;;25.90;54.40;;;;;;4962399;28;20037;-81
2022/08/24 01:52:24;;;;;;;2.50;1.80;;;25.90;54.40;;;;;;4981067;28;20477;-81
2022/08/24 01:54:52;;;;;;;2.95;1.88;;;25.90;54.40;;;;;;4980252;28;20034;-82
2022/08/24 01:57:19;;;;;;;2.47;1.80;;;25.80;54.40;;;;;;4996469;28;20041;-81
2022/08/24 01:59:44;;;;;;;2.88;1.85;;;25.80;54.40;;;;;;4996463;28;20538;-82
2022/08/24 02:02:16;;;;;;;2.38;2.05;;;25.80;55.10;;;;;;4980564;28;20038;-81
2022/08/24 02:04:42;;;;;;;1.80;1.70;;;25.80;54.60;;;;;;4996961;28;20030;-82
2022/08/24 02:07:08;;;;;;;3.00;2.15;;;25.70;54.50;;;;;;4980571;28;20026;-81
2022/08/24 02:09:35;;;;;;;2.42;1.88;;;25.70;54.50;;;;;;4963996;28;20144;-82
2022/08/24 02:12:03;;;;;;;3.47;1.92;;;25.70;54.60;;;;;;4996210;28;20026;-81
2022/08/24 02:14:34;;;;;;;2.38;1.83;;;25.70;54.70;;;;;;5014247;28;20037;-81
2022/08/24 02:17:03;;;;;;;1.98;1.75;;;25.60;54.60;;;;;;4996499;28;20037;-82
2022/08/24 02:19:28;;;;;;;2.13;1.70;;;25.60;54.60;;;;;;4997308;28;20037;-83
2022/08/24 02:21:54;;;;;;;2.78;1.95;;;25.60;54.70;;;;;;4994305;28;20050;-81
2022/08/24 02:24:20;;;;;;;3.13;2.08;;;25.60;54.70;;;;;;5011590;28;20053;-82
2022/08/24 02:26:47;;;;;;;2.55;1.85;;;25.60;54.80;;;;;;4972377;28;20041;-82
2022/08/24 02:29:12;;;;;;;2.10;1.80;;;25.50;54.80;;;;;;4996525;28;20034;-81
2022/08/24 02:31:38;;;;;;;2.75;2.15;;;25.50;54.80;;;;;;4996603;28;20490;-82
2022/08/24 02:34:04;;;;;;;3.25;2.00;;;25.40;54.80;;;;;;4996047;28;20041;-81
2022/08/24 02:36:30;;;;;;;2.25;1.90;;;25.40;54.90;;;;;;4979850;28;20049;-81
2022/08/24 02:38:57;;;;;;;2.72;2.00;;;25.40;55.00;;;;;;4995540;28;20026;-82
2022/08/24 02:41:24;;;;;;;2.60;2.00;;;25.40;55.00;;;;;;4979826;28;20046;-83
2022/08/24 02:43:51;;;;;;;2.10;1.90;;;25.30;55.00;;;;;;4996314;28;20036;-83
2022/08/24 02:46:19;;;;;;;3.72;2.20;;;25.30;55.70;;;;;;4979438;28;20458;-82
2022/08/24 02:48:44;;;;;;;2.63;2.13;;;25.30;55.10;;;;;;4979735;28;20029;-83
2022/08/24 02:51:19;;;;;;;3.05;2.20;;;25.30;55.20;;;;;;4998469;28;20490;-82
2022/08/24 02:53:44;;;;;;;1.92;1.70;;;25.30;55.40;;;;;;4999700;28;20026;-83
2022/08/24 02:56:11;;;;;;;2.97;1.92;;;25.30;55.30;;;;;;4983304;28;20037;-82
2022/08/24 02:58:37;;;;;;;1.77;1.60;;;25.20;55.30;;;;;;4999263;28;20394;-82
2022/08/24 03:01:03;;;;;;;3.80;2.22;;;25.20;55.30;;;;;;4983172;28;20546;-83
2022/08/24 03:03:29;;;;;;;3.50;2.00;;;25.20;55.30;;;;;;4983540;28;20037;-82
2022/08/24 03:05:55;;;;;;;2.95;2.28;;;25.20;55.40;;;;;;4998984;28;20126;-83
2022/08/24 03:08:21;;;;;;;2.92;2.00;;;25.20;55.50;;;;;;4983034;28;20061;-82
2022/08/24 03:10:48;;;;;;;2.75;2.38;;;25.10;55.40;;;;;;4983143;28;20030;-83
2022/08/24 03:13:16;;;;;;;2.83;2.10;;;25.10;55.40;;;;;;4983180;28;20450;-83
2022/08/24 03:15:42;;;;;;;2.45;2.00;;;25.10;55.50;;;;;;4982665;28;20037;-82
2022/08/24 03:18:07;;;;;;;3.47;2.03;;;25.10;55.50;;;;;;4982641;28;20470;-84
2022/08/24 03:20:33;;;;;;;2.40;2.13;;;25.00;55.50;;;;;;4967312;28;20030;-82
2022/08/24 03:22:59;;;;;;;2.53;2.00;;;25.00;55.50;;;;;;4998443;28;20390;-83
2022/08/24 03:25:26;;;;;;;2.40;2.20;;;25.00;55.50;;;;;;4982661;28;20127;-82
2022/08/24 03:27:53;;;;;;;3.03;2.00;;;25.00;55.50;;;;;;4999243;28;20038;-83
2022/08/24 03:30:19;;;;;;;3.30;2.20;;;24.90;55.50;;;;;;5016752;28;20032;-82
2022/08/24 03:32:47;;;;;;;2.65;2.15;;;24.90;55.60;;;;;;4982884;28;20030;-84
2022/08/24 03:35:14;;;;;;;3.20;2.30;;;24.90;55.60;;;;;;4982494;28;20053;-84
2022/08/24 03:37:40;;;;;;;3.45;2.08;;;24.90;55.70;;;;;;4998561;28;20124;-83
2022/08/24 03:40:09;;;;;;;2.45;2.03;;;24.80;55.60;;;;;;4982099;28;20026;-83
2022/08/24 03:42:35;;;;;;;3.20;2.30;;;24.80;55.70;;;;;;4982447;28;20394;-82
2022/08/24 03:45:00;;;;;;;2.30;1.92;;;24.80;55.70;;;;;;4966247;28;20022;-82
2022/08/24 03:47:26;;;;;;;3.05;2.10;;;24.80;55.70;;;;;;4998386;28;20038;-83
2022/08/24 03:49:52;;;;;;;2.35;2.15;;;24.70;55.70;;;;;;4982051;28;20029;-81
2022/08/24 03:52:18;;;;;;;2.33;1.92;;;24.70;55.80;;;;;;4967120;28;20041;-82
2022/08/24 03:54:44;;;;;;;3.60;2.17;;;24.70;55.90;;;;;;4982538;28;20124;-82
2022/08/24 03:57:10;;;;;;;2.67;2.20;;;24.70;55.90;;;;;;4966845;28;20389;-82
2022/08/24 03:59:36;;;;;;;2.47;2.10;;;24.70;55.90;;;;;;4966104;28;20064;-82
2022/08/24 04:02:03;;;;;;;2.42;2.05;;;24.60;55.90;;;;;;4981076;28;20037;-81
2022/08/24 04:04:30;;;;;;;2.40;2.00;;;24.60;55.90;;;;;;4950070;28;20037;-81
2022/08/24 04:06:56;;;;;;;3.90;2.20;;;24.60;55.90;;;;;;4981822;28;20032;-81
2022/08/24 04:09:24;;;;;;;2.53;2.00;;;24.60;56.00;;;;;;4998526;28;20061;-81
2022/08/24 04:11:50;;;;;;;2.95;2.08;;;24.60;56.00;;;;;;4982697;28;20093;-84
2022/08/24 04:14:19;;;;;;;2.70;2.20;;;24.50;56.00;;;;;;5002718;28;20030;-84
2022/08/24 04:16:48;;;;;;;3.00;2.30;;;24.50;56.00;;;;;;5017777;28;20030;-81
2022/08/24 04:19:22;;;;;;;2.63;2.10;;;24.50;56.10;;;;;;5002151;28;20038;-81
2022/08/24 04:21:48;;;;;;;2.25;1.90;;;24.50;56.10;;;;;;4982058;28;20041;-82
2022/08/24 04:24:17;;;;;;;2.10;1.88;;;24.50;56.10;;;;;;4982093;28;20022;-82
2022/08/24 04:26:45;;;;;;;2.60;1.88;;;24.40;56.10;;;;;;4997989;28;20044;-82
2022/08/24 04:29:14;;;;;;;2.78;2.20;;;24.40;56.10;;;;;;4981438;28;20033;-82
2022/08/24 04:31:45;;;;;;;2.50;2.20;;;24.40;56.20;;;;;;4997611;28;20041;-82
2022/08/24 04:34:13;;;;;;;2.42;1.95;;;24.40;56.20;;;;;;4981349;28;20384;-82
2022/08/24 04:36:41;;;;;;;3.22;2.15;;;24.30;56.20;;;;;;4981398;28;20028;-82
2022/08/24 04:39:07;;;;;;;2.10;1.90;;;24.30;56.20;;;;;;4997276;28;20436;-81
2022/08/24 04:41:51;;;;;;;2.30;2.10;;;24.30;56.20;;;;;;4986403;28;20049;-81
2022/08/24 04:44:19;;;;;;;2.53;2.05;;;24.20;56.80;;;;;;4982359;28;20030;-81
2022/08/24 04:46:46;;;;;;;3.45;2.30;;;24.20;56.30;;;;;;4981264;28;20030;-83
2022/08/24 04:49:11;;;;;;;3.20;2.10;;;24.20;56.30;;;;;;5014811;28;20034;-80
2022/08/24 04:51:37;;;;;;;2.47;1.88;;;24.20;56.40;;;;;;4980603;28;20413;-82
2022/08/24 04:54:06;;;;;;;2.13;1.92;;;24.20;56.40;;;;;;4997292;28;20034;-82
2022/08/24 04:56:33;;;;;;;2.58;2.05;;;24.10;56.40;;;;;;5014468;28;20116;-80
2022/08/24 04:58:59;;;;;;;2.10;1.90;;;24.10;56.50;;;;;;4997740;28;20061;-81
2022/08/24 05:01:27;;;;;;;2.67;2.30;;;24.10;56.50;;;;;;4964740;28;20494;-82
2022/08/24 05:03:55;;;;;;;2.67;2.10;;;24.10;56.60;;;;;;4996986;28;20042;-82
2022/08/24 05:06:24;;;;;;;2.17;1.98;;;24.10;56.60;;;;;;4980602;28;20034;-82
2022/08/24 05:08:50;;;;;;;2.65;2.20;;;24.00;56.60;;;;;;4996505;28;20025;-81
2022/08/24 05:11:18;;;;;;;2.15;1.95;;;24.00;56.60;;;;;;4997066;28;20030;-82
2022/08/24 05:13:44;;;;;;;2.35;1.98;;;24.00;56.60;;;;;;4980511;28;20030;-82
2022/08/24 05:16:14;;;;;;;2.50;2.30;;;24.00;56.70;;;;;;4980416;28;20026;-82
2022/08/24 05:18:41;;;;;;;2.75;2.42;;;24.00;56.80;;;;;;4980819;28;20109;-82
2022/08/24 05:21:09;;;;;;;2.97;2.40;;;23.90;56.80;;;;;;4979991;28;20176;-81
2022/08/24 05:23:36;;;;;;;2.60;2.10;;;24.00;56.90;;;;;;4980402;28;20052;-82
2022/08/24 05:26:17;;;;;;;2.95;2.08;;;23.90;56.80;;;;;;4980459;28;20124;-83
2022/08/24 05:28:44;;;;;;;2.72;2.20;;;23.90;57.00;;;;;;4981148;28;20037;-83
2022/08/24 05:31:17;;;;;;;2.38;2.10;;;23.90;56.90;;;;;;4980474;28;20118;-83
2022/08/24 05:33:43;;;;;;;2.30;2.03;;;23.90;57.00;;;;;;5014317;28;20104;-82
2022/08/24 05:36:29;;;;;;;3.22;2.22;;;23.80;56.90;;;;;;4980947;28;20473;-82
2022/08/24 05:38:57;;;;;;;2.25;2.05;;;23.80;57.10;;;;;;4996956;28;20043;-83
2022/08/24 05:41:24;;;;;;;2.20;2.00;;;23.80;57.00;;;;;;4981356;28;20034;-83
2022/08/24 05:43:58;;;;;;;2.80;2.20;;;23.80;57.10;;;;;;4981840;28;20045;-84
2022/08/24 05:46:24;;;;;;;2.75;2.17;;;23.80;57.10;;;;;;4965524;28;20276;-83
2022/08/24 05:48:51;;;;;;;2.22;2.03;;;23.80;57.10;;;;;;4985914;28;20415;-82
2022/08/24 05:51:31;;;;;;;2.65;2.08;;;23.80;57.20;;;;;;5015382;28;20041;-83
2022/08/24 05:54:03;;;;;;;3.08;2.30;;;23.80;57.20;;;;;;4981222;28;20033;-84
2022/08/24 05:56:37;;;;;;;1.88;1.63;;;23.70;57.20;;;;;;4997097;28;20486;-82
2022/08/24 05:59:03;;;;;;;2.60;2.30;;;23.80;57.30;;;;;;4996829;28;20030;-83
2022/08/24 06:01:28;;;;;;;3.55;2.42;;;23.70;57.30;;;;;;4993681;28;20037;-83
2022/08/24 06:03:56;;;;;;;2.75;2.10;;;23.70;57.30;;;;;;5013208;28;20038;-82
2022/08/24 06:06:23;;;;;;;2.78;1.92;;;23.70;57.30;;;;;;5001190;28;20030;-82
2022/08/24 06:08:54;;;;;;;2.60;2.20;;;23.70;57.40;;;;;;4996514;28;20030;-83
2022/08/24 06:11:23;;;;;;;2.42;2.20;;;23.70;57.40;;;;;;4981809;28;20065;-83
2022/08/24 06:13:51;;;;;;;2.47;2.15;;;23.70;57.40;;;;;;4997430;28;20120;-83
2022/08/24 06:16:17;;;;;;;3.28;2.50;;;23.70;57.40;;;;;;4964465;28;20037;-83
2022/08/24 06:18:43;;;;;;;3.33;2.35;;;23.70;57.50;;;;;;4980713;28;20026;-83
2022/08/24 06:21:13;;;;;;;3.30;2.40;;;23.70;57.50;;;;;;4964093;28;20042;-82
2022/08/24 06:23:40;;;;;;;2.63;2.30;;;23.70;57.60;;;;;;4980492;28;20473;-82
2022/08/24 06:28:52;;;;;;;;;;;23.70;57.50;;;;;;5000947;28;20382;-82
2022/08/24 06:31:19;;;;;;;2.40;2.08;;;23.70;57.30;;;;;;4967509;28;20011;-83
2022/08/24 06:33:46;;;;;;;3.25;2.47;;;23.70;57.30;;;;;;4983822;28;20355;-83
2022/08/24 06:36:13;;;;;;;2.53;2.25;;;23.60;57.50;;;;;;4984436;28;20446;-82
2022/08/24 06:38:39;;;;;;;3.40;2.70;;;23.70;57.60;;;;;;4983955;28;20034;-83
2022/08/24 06:41:06;;;;;;;3.65;2.65;;;23.60;57.60;;;;;;4983556;28;20038;-81
2022/08/24 06:43:32;;;;;;;2.75;2.50;;;23.70;57.70;;;;;;4984112;28;20060;-81
2022/08/24 06:46:01;;;;;;;3.58;2.40;;;23.60;57.70;;;;;;4999932;28;20076;-83
2022/08/24 06:48:33;;;;;;;3.22;2.50;;;23.70;57.70;;;;;;4984749;28;20041;-82
2022/08/24 06:50:59;;;;;;;4.00;2.88;;;23.60;57.70;;;;;;4999705;28;20053;-83
2022/08/24 06:53:26;;;;;;;3.75;3.05;;;23.70;57.80;;;;;;5000179;28;20030;-83
2022/08/24 06:55:56;;;;;;;5.63;3.80;;;23.70;57.90;;;;;;4972205;28;20154;-84
2022/08/24 06:58:24;;;;;;;4.00;3.38;;;23.70;58.10;;;;;;5005061;28;20164;-81
2022/08/24 07:00:51;;;;;;;4.00;3.25;;;23.70;58.20;;;;;;5000160;28;20026;-81
2022/08/24 07:03:17;;;;;;;4.68;3.83;;;23.70;58.20;;;;;;5003285;28;20044;-83
2022/08/24 07:05:56;;;;;;;4.78;3.65;;;23.70;58.30;;;;;;4995629;28;20030;-82
2022/08/24 07:08:52;;;;;;;4.78;3.72;;;23.70;58.30;;;;;;4993832;28;20045;-81
2022/08/24 07:11:18;;;;;;;4.72;3.38;;;23.80;58.40;;;;;;5010194;28;20040;-82
2022/08/24 07:13:46;;;;;;;4.43;3.60;;;23.70;58.40;;;;;;5003802;28;20087;-83
2022/08/24 07:16:17;;;;;;;4.70;3.92;;;23.70;58.40;;;;;;4984282;28;20022;-81
2022/08/24 07:18:46;;;;;;;4.35;3.60;;;23.80;58.60;;;;;;5000607;28;20034;-82
2022/08/24 07:21:12;;;;;;;5.68;3.85;;;23.80;58.50;;;;;;4983301;28;20119;-82
2022/08/24 07:23:43;;;;;;;5.38;3.95;;;23.80;58.50;;;;;;4984683;28;20125;-81
2022/08/24 07:26:21;;;;;;;5.22;3.88;;;23.80;58.60;;;;;;4984249;28;20360;-83
2022/08/24 07:28:52;;;;;;;4.93;3.95;;;23.80;58.60;;;;;;5002610;28;20037;-84
2022/08/24 07:31:19;;;;;;;4.20;3.53;;;23.80;58.60;;;;;;4999542;28;20038;-81
2022/08/24 07:34:05;;;;;;;4.55;3.50;;;23.90;58.60;;;;;;4985343;28;20034;-80
2022/08/24 07:36:31;;;;;;;4.95;3.80;;;23.90;58.60;;;;;;4983239;28;20033;-82
2022/08/24 07:38:56;;;;;;;5.13;4.00;;;23.90;58.80;;;;;;4982738;28;20124;-87
2022/08/24 07:41:27;;;;;;;5.05;3.72;;;23.90;58.80;;;;;;4982155;28;20502;-83
2022/08/24 07:43:54;;;;;;;4.90;3.63;;;23.90;58.90;;;;;;4982866;28;20061;-81
2022/08/24 07:46:20;;;;;;;5.07;4.30;;;23.90;58.90;;;;;;4982161;28;20022;-84
2022/08/24 07:48:46;;;;;;;5.00;4.22;;;24.00;59.00;;;;;;4982561;28;20057;-84
2022/08/24 07:51:14;;;;;;;5.15;3.95;;;24.00;59.00;;;;;;4999401;28;20050;-83
2022/08/24 07:53:45;;;;;;;5.97;4.50;;;24.00;59.00;;;;;;5002660;28;20027;-83
2022/08/24 07:56:12;;;;;;;5.40;4.53;;;24.00;59.10;;;;;;4998592;28;20034;-85
2022/08/24 07:58:41;;;;;;;4.95;3.88;;;24.00;59.00;;;;;;4983363;28;20029;-84
2022/08/24 08:01:08;;;;;;;5.80;4.32;;;24.10;59.10;;;;;;5003150;28;20049;-85
2022/08/24 08:03:34;;;;;;;5.85;4.53;;;24.10;59.20;;;;;;4983292;28;20038;-85
2022/08/24 08:06:03;;;;;;;4.88;3.95;;;24.10;59.20;;;;;;4983169;28;20041;-85
2022/08/24 08:08:31;;;;;;;5.00;4.00;;;24.10;59.30;;;;;;4998736;28;20451;-82
2022/08/24 08:10:58;;;;;;;4.90;3.88;;;24.20;59.50;;;;;;4997716;28;20036;-82
2022/08/24 08:13:24;;;;;;;4.95;4.43;;;24.20;59.60;;;;;;4981830;28;20121;-83
2022/08/24 08:15:50;;;;;;;5.47;4.32;;;24.20;59.70;;;;;;4997979;28;20041;-82
2022/08/24 08:18:18;;;;;;;4.95;4.20;;;24.20;59.70;;;;;;4982132;28;20026;-82
2022/08/24 08:20:44;;;;;;;6.22;4.15;;;24.20;59.80;;;;;;4981903;28;20034;-82
2022/08/24 08:26:18;;;;;;;5.40;4.15;;;24.30;59.70;;;;;;4998514;28;20459;-82
2022/08/24 08:28:57;;;;;;;4.93;3.67;;;24.40;59.60;;;;;;4983483;28;20490;-82
2022/08/24 08:31:23;;;;;;;5.90;3.47;;;24.40;59.40;;;;;;4981722;28;20034;-82
2022/08/24 08:33:49;;;;;;;4.15;3.28;;;24.50;59.30;;;;;;4981451;28;20573;-82
2022/08/24 08:36:17;;;;;;;3.85;3.17;;;24.50;59.20;;;;;;4982407;28;20034;-82
2022/08/24 08:38:49;;;;;;;4.93;3.63;;;24.60;59.10;;;;;;4982704;28;20030;-82
2022/08/24 08:41:18;;;;;;;5.30;3.58;;;24.60;59.10;;;;;;4997332;28;20137;-82
2022/08/24 08:44:12;;;;;;;4.28;3.13;;;24.60;59.00;;;;;;4999335;28;20142;-83
2022/08/24 08:46:48;;;;;;;;;;;24.80;59.10;;;;;;4981721;28;20029;-83
2022/08/24 08:49:34;;;;;;;3.72;2.78;;;24.80;58.70;;;;;;4996927;28;20007;-82
2022/08/24 08:52:18;;;;;;;4.57;3.13;;;24.90;58.80;;;;;;4997160;28;20068;-82
2022/08/24 08:54:48;;;;;;;4.50;2.53;;;25.00;59.00;;;;;;4981321;28;20041;-83
2022/08/24 08:57:55;;;;;;;3.60;2.70;;;25.00;58.90;;;;;;4997179;28;20036;-82
2022/08/24 09:00:23;;;;;;;3.20;2.58;;;25.10;59.00;;;;;;4976920;28;20034;-83
2022/08/24 09:03:20;;;;;;;4.95;2.90;;;25.20;58.80;;;;;;4996395;28;20042;-82
2022/08/24 09:06:30;;;;;;;3.20;2.67;;;25.30;58.90;;;;;;4999497;28;20038;-82
2022/08/24 09:09:23;;;;;;;3.55;2.40;;;25.40;58.90;;;;;;4997207;28;20391;-81
2022/08/24 09:12:16;;;;;;;3.50;2.75;;;25.50;58.90;;;;;;4981725;28;20448;-83
2022/08/24 09:15:03;;;;;;;2.63;2.08;;;25.60;58.90;;;;;;4954815;28;20038;-83
2022/08/24 09:17:35;;;;;;;4.13;2.60;;;25.70;58.90;;;;;;4981189;28;20034;-83
2022/08/24 09:20:11;;;;;;;3.58;2.40;;;25.80;58.90;;;;;;4981694;28;20030;-83
2022/08/24 09:22:42;;;;;;;2.85;2.20;;;26.00;58.90;;;;;;5014559;28;20025;-83
2022/08/24 09:25:26;;;;;;;2.40;2.13;;;26.00;58.90;;;;;;4996955;28;20022;-83
2022/08/24 09:28:12;;;;;;;2.75;2.20;;;26.10;59.00;;;;;;4981714;28;20137;-83
2022/08/24 09:31:12;;;;;;;2.50;2.10;;;26.30;59.00;;;;;;5000383;28;20119;-83
2022/08/24 09:33:50;;;;;;;2.88;2.20;;;26.40;59.00;;;;;;5012965;28;20030;-83
2022/08/24 09:36:46;;;;;;;3.20;2.20;;;26.50;58.80;;;;;;5006614;28;20030;-84
2022/08/24 09:39:56;;;;;;;2.22;1.90;;;26.60;58.90;;;;;;4997366;28;20449;-83
2022/08/24 09:42:54;;;;;;;2.15;1.70;;;26.70;58.80;;;;;;4921475;29;20043;-83
2022/08/24 09:45:41;;;;;;;2.65;1.77;;;26.90;58.80;;;;;;4953772;29;20054;-83
2022/08/24 09:48:35;;;;;;;2.40;1.90;;;27.00;58.80;;;;;;4986121;28;20042;-81
2022/08/24 09:51:01;;;;;;;1.80;1.45;;;27.10;58.70;;;;;;4996779;28;20041;-82
2022/08/24 09:54:04;;;;;;;2.45;1.80;;;27.20;58.60;;;;;;4996250;28;20060;-81
2022/08/24 09:56:58;;;;;;;1.95;1.73;;;27.40;58.80;;;;;;4996059;28;20083;-82
2022/08/24 09:59:43;;;;;;;1.60;1.50;;;27.40;58.50;;;;;;4995238;28;20030;-83
2022/08/24 10:02:11;;;;;;;1.60;1.50;;;27.60;58.50;;;;;;4996534;28;20030;-86
2022/08/24 10:04:55;;;;;;;1.50;1.40;;;27.70;58.40;;;;;;4997674;28;20026;-86
2022/08/24 10:07:41;;;;;;;1.70;1.60;;;27.80;58.40;;;;;;4997632;28;20124;-85
2022/08/24 10:10:19;;;;;;;1.52;1.40;;;27.90;58.30;;;;;;5013651;28;20057;-84
2022/08/24 10:13:09;;;;;;;2.95;1.55;;;28.10;58.30;;;;;;4996459;28;20033;-83
2022/08/24 10:15:47;;;;;;;1.95;1.40;;;28.20;58.30;;;;;;4995982;28;20030;-84
2022/08/24 10:18:22;;;;;;;1.60;1.50;;;28.30;58.20;;;;;;4997059;28;20040;-84
2022/08/24 10:21:13;;;;;;;2.22;1.50;;;28.40;58.20;;;;;;4996134;28;20478;-84
2022/08/24 10:24:16;;;;;;;1.63;1.45;;;28.50;58.30;;;;;;4997012;28;20049;-85
2022/08/24 10:26:51;;;;;;;1.38;1.27;;;28.60;58.20;;;;;;4971979;28;20124;-84
2022/08/24 10:29:55;;;;;;;2.00;1.30;;;28.80;58.20;;;;;;4996245;28;20102;-85
2022/08/24 10:32:44;;;;;;;1.90;1.35;;;28.90;58.20;;;;;;4974993;28;20038;-84
2022/08/24 10:35:21;;;;;;;1.55;1.30;;;29.00;58.10;;;;;;4996240;28;20026;-84
2022/08/24 10:41:18;;;;;;;1.30;1.20;;;29.30;58.10;;;;;;5035876;28;20045;-84
2022/08/24 10:44:03;;;;;;;1.42;1.20;;;29.40;58.20;;;;;;5008932;28;20030;-84
2022/08/24 10:46:56;;;;;;;1.60;1.30;;;29.50;58.20;;;;;;5015408;28;20042;-83
2022/08/24 10:49:34;;;;;;;1.23;1.13;;;29.60;58.20;;;;;;5013720;28;20021;-83
2022/08/24 10:52:30;;;;;;;1.13;1.00;;;29.70;58.10;;;;;;4996295;28;20072;-84
2022/08/24 10:55:16;;;;;;;1.35;0.90;;;29.80;58.20;;;;;;4979843;28;20058;-84
2022/08/24 10:58:11;;;;;;;1.20;1.10;;;29.90;58.40;;;;;;5014041;28;20033;-83
2022/08/24 11:00:37;;;;;;;1.00;0.90;;;30.00;58.50;;;;;;4972435;28;20042;-83
2022/08/24 11:03:13;;;;;;;1.20;1.02;;;30.20;58.50;;;;;;4979882;28;20045;-84
2022/08/24 11:05:46;;;;;;;1.02;1.02;;;30.20;58.50;;;;;;4995904;28;20113;-84
2022/08/24 11:08:24;;;;;;;1.05;1.02;;;30.30;58.80;;;;;;4995755;28;20533;-83
2022/08/24 11:11:12;;;;;;;1.00;1.00;;;30.40;58.90;;;;;;4996975;28;20029;-83
2022/08/24 11:13:51;;;;;;;1.27;1.17;;;30.40;59.20;;;;;;4999837;28;20026;-85
2022/08/24 11:16:31;;;;;;;1.20;1.10;;;30.50;59.40;;;;;;5016431;28;20135;-83
2022/08/24 11:19:00;;;;;;;0.95;0.93;;;30.60;60.40;;;;;;5016659;28;20045;-83
2022/08/24 11:21:35;;;;;;;1.05;1.00;;;30.60;60.40;;;;;;4999148;28;20030;-85
2022/08/24 11:24:17;;;;;;;0.90;0.90;;;30.70;60.70;;;;;;4999465;28;20030;-83
2022/08/24 11:27:17;;;;;;;1.27;1.17;;;30.80;61.00;;;;;;4999801;28;20080;-85
2022/08/24 11:29:49;;;;;;;1.30;1.20;;;30.80;61.20;;;;;;4999372;28;20088;-84
2022/08/24 11:32:37;;;;;;;1.38;1.20;;;30.90;61.50;;;;;;4999128;28;20073;-83
2022/08/24 11:35:13;;;;;;;1.10;1.10;;;30.90;61.60;;;;;;5000191;28;20030;-85
2022/08/24 11:37:39;;;;;;;1.10;1.02;;;31.00;61.20;;;;;;5007715;28;20079;-87
2022/08/24 11:40:07;;;;;;;1.02;1.02;;;31.10;61.20;;;;;;5000057;28;20093;-84
2022/08/24 11:43:09;;;;;;;1.40;1.30;;;31.10;61.20;;;;;;4999284;28;20088;-85
2022/08/24 11:45:50;;;;;;;1.30;1.20;;;31.10;61.40;;;;;;4999763;28;20033;-85
2022/08/24 11:48:52;;;;;;;1.15;1.10;;;31.20;61.30;;;;;;4999799;28;20034;-84
2022/08/24 11:51:34;;;;;;;1.02;0.98;;;31.20;61.40;;;;;;4974000;28;20053;-84
2022/08/24 11:54:27;;;;;;;1.25;1.15;;;31.20;61.40;;;;;;5003232;28;20029;-82
2022/08/24 11:57:17;;;;;;;1.30;1.20;;;31.30;61.40;;;;;;4999373;28;20092;-84
2022/08/24 12:00:07;;;;;;;1.30;1.20;;;31.30;61.40;;;;;;4991427;28;20046;-83
2022/08/24 12:03:01;;;;;;;0.90;0.90;;;31.30;61.50;;;;;;4998715;28;20494;-85
2022/08/24 12:05:48;;;;;;;1.52;1.23;;;31.40;61.20;;;;;;4998502;28;20026;-83
2022/08/24 12:08:25;;;;;;;1.40;1.30;;;31.40;61.10;;;;;;4998760;28;20030;-84
2022/08/24 12:11:01;;;;;;;1.52;1.20;;;31.40;61.00;;;;;;4997803;28;20038;-81
2022/08/24 12:13:57;;;;;;;1.20;1.10;;;31.40;60.90;;;;;;4998377;28;20034;-83
2022/08/24 12:16:47;;;;;;;1.27;1.17;;;31.40;60.80;;;;;;5015223;28;20025;-81
2022/08/24 12:19:25;;;;;;;1.25;1.15;;;31.50;60.70;;;;;;4998610;28;20461;-82
2022/08/24 12:21:56;;;;;;;1.27;1.17;;;31.50;60.60;;;;;;4997080;28;20041;-82
2022/08/24 12:24:34;;;;;;;1.27;1.08;;;31.60;60.60;;;;;;4998023;28;20454;-82
2022/08/24 12:27:11;;;;;;;2.05;1.30;;;31.60;60.50;;;;;;5015044;28;20022;-82
2022/08/24 12:29:40;;;;;;;1.20;1.10;;;31.60;60.30;;;;;;5015359;28;20034;-80
2022/08/24 12:32:13;;;;;;;1.20;1.10;;;31.70;60.30;;;;;;4981409;28;20030;-79
2022/08/24 12:34:55;;;;;;;1.45;1.25;;;31.60;60.00;;;;;;4997478;28;20036;-80
2022/08/24 12:37:34;;;;;;;1.67;1.10;;;31.70;59.60;;;;;;4981511;28;20037;-81
2022/08/24 12:40:24;;;;;;;1.00;1.00;;;31.70;59.10;;;;;;4998029;28;20029;-80
2022/08/24 12:42:57;;;;;;;1.15;1.05;;;31.80;59.00;;;;;;4998240;28;20091;-85
2022/08/24 12:45:24;;;;;;;1.40;1.30;;;31.80;58.80;;;;;;4997536;28;20026;-82
2022/08/24 12:48:06;;;;;;;1.13;1.02;;;31.80;58.80;;;;;;4981117;28;20030;-81
2022/08/24 12:50:48;;;;;;;1.10;1.10;;;31.80;58.80;;;;;;4997252;28;20138;-82
2022/08/24 12:53:36;;;;;;;1.20;1.10;;;31.80;58.70;;;;;;4997408;28;20052;-81
2022/08/24 12:56:32;;;;;;;1.33;1.23;;;31.80;58.60;;;;;;4997857;28;20042;-82
2022/08/24 12:59:23;;;;;;;1.30;1.20;;;31.80;58.70;;;;;;4997599;28;20069;-84
2022/08/24 13:02:09;;;;;;;1.40;1.15;;;31.80;58.60;;;;;;4998646;28;20030;-84
2022/08/24 13:04:41;;;;;;;1.65;1.38;;;31.80;58.60;;;;;;4988209;28;20045;-85
2022/08/24 13:07:17;;;;;;;1.10;1.00;;;31.90;58.60;;;;;;4997871;28;20030;-85
2022/08/24 13:10:09;;;;;;;1.20;1.10;;;31.90;58.50;;;;;;5015191;28;20030;-83
2022/08/24 13:12:38;;;;;;;1.17;1.08;;;31.90;58.30;;;;;;4981397;28;20034;-84
2022/08/24 13:15:22;;;;;;;1.27;1.17;;;31.90;58.00;;;;;;5015139;28;20018;-85
2022/08/24 13:18:05;;;;;;;1.35;1.20;;;31.90;58.00;;;;;;4997258;28;20026;-84
2022/08/24 13:20:37;;;;;;;1.60;1.20;;;32.00;57.90;;;;;;4997865;28;20041;-86
2022/08/24 13:23:17;;;;;;;1.98;1.27;;;32.00;57.80;;;;;;4998282;28;20040;-85
2022/08/24 13:25:46;;;;;;;1.30;1.20;;;32.00;57.70;;;;;;5015182;28;20046;-86
2022/08/24 13:28:23;;;;;;;1.88;1.30;;;32.00;57.50;;;;;;4981388;28;20446;-84
2022/08/24 13:30:52;;;;;;;1.23;1.13;;;32.10;57.60;;;;;;4996850;28;20034;-84